createdAt,value
2022-08-22T00:00:19.009Z,23.22
2022-08-22T00:02:45.054Z,23.95
2022-08-22T00:05:32.319Z,23.13
2022-08-22T00:11:07.957Z,23.04
2022-08-22T00:16:28.962Z,22.92
2022-08-22T00:21:35.540Z,22.95
2022-08-22T00:26:53.966Z,22.86
2022-08-22T00:32:10.543Z,22.70
2022-08-22T00:37:17.169Z,22.69
2022-08-22T00:42:29.111Z,22.75
2022-08-22T00:47:55.531Z,22.67
2022-08-22T00:53:00.059Z,22.73
2022-08-22T00:58:35.347Z,22.61
2022-08-22T01:03:48.595Z,22.66
2022-08-22T01:08:59.015Z,22.81
2022-08-22T01:14:37.995Z,22.73
2022-08-22T01:19:53.007Z,22.78
2022-08-22T01:25:15.899Z,22.82
2022-08-22T01:30:38.942Z,22.91
2022-08-22T01:35:49.402Z,22.97
2022-08-22T01:41:12.186Z,22.98
2022-08-22T01:46:20.692Z,22.99
2022-08-22T01:52:00.641Z,23.02
2022-08-22T01:57:05.271Z,23.09
2022-08-22T02:02:32.057Z,23.10
2022-08-22T02:07:48.771Z,22.81
2022-08-22T02:13:17.841Z,23.11
2022-08-22T02:18:33.200Z,23.01
2022-08-22T02:23:57.260Z,22.97
2022-08-22T02:29:22.506Z,22.94
2022-08-22T02:34:26.798Z,22.80
2022-08-22T02:40:02.129Z,22.87
2022-08-22T02:45:07.039Z,22.98
2022-08-22T02:50:18.485Z,22.86
2022-08-22T02:55:41.105Z,22.57
2022-08-22T03:00:52.298Z,22.34
2022-08-22T03:06:19.670Z,22.46
2022-08-22T03:11:26.557Z,22.21
2022-08-22T03:17:26.272Z,22.21
2022-08-22T03:22:43.625Z,22.40
2022-08-22T03:27:51.947Z,22.22
2022-08-22T03:33:17.011Z,22.39
2022-08-22T03:38:33.496Z,22.30
2022-08-22T03:44:05.702Z,22.55
2022-08-22T03:49:12.930Z,22.15
2022-08-22T03:54:35.844Z,22.20
2022-08-22T03:59:58.885Z,22.27
2022-08-22T04:05:05.046Z,22.46
2022-08-22T04:10:31.119Z,22.46
2022-08-22T04:16:00.884Z,22.57
2022-08-22T04:21:16.290Z,22.51
2022-08-22T04:26:33.502Z,22.61
2022-08-22T04:31:44.392Z,22.56
2022-08-22T04:36:50.477Z,22.41
2022-08-22T04:42:00.695Z,22.41
2022-08-22T04:47:35.174Z,22.49
2022-08-22T04:52:59.601Z,22.55
2022-08-22T04:58:26.627Z,22.57
2022-08-22T05:03:28.849Z,22.61
2022-08-22T05:08:31.895Z,22.73
2022-08-22T05:13:44.549Z,22.82
2022-08-22T05:18:48.860Z,22.97
2022-08-22T05:23:55.834Z,23.08
2022-08-22T05:29:00.330Z,23.16
2022-08-22T05:34:06.174Z,23.06
2022-08-22T05:39:17.593Z,23.19
2022-08-22T05:44:20.865Z,23.29
2022-08-22T05:49:23.511Z,23.35
2022-08-22T05:54:33.522Z,23.49
2022-08-22T05:59:38.438Z,23.47
2022-08-22T06:04:51.895Z,23.40
2022-08-22T06:10:13.798Z,23.50
2022-08-22T06:15:36.767Z,23.59
2022-08-22T06:20:56.336Z,23.67
2022-08-22T06:25:59.394Z,23.85
2022-08-22T06:31:00.942Z,23.83
2022-08-22T06:36:24.637Z,24.02
2022-08-22T06:41:28.298Z,24.11
2022-08-22T06:46:29.855Z,24.16
2022-08-22T06:51:32.474Z,24.15
2022-08-22T06:56:44.380Z,24.31
2022-08-22T07:01:52.905Z,24.51
2022-08-22T07:06:56.055Z,24.64
2022-08-22T07:11:59.398Z,24.73
2022-08-22T07:17:04.799Z,24.54
2022-08-22T07:22:17.444Z,24.54
2022-08-22T07:27:41.062Z,24.48
2022-08-22T07:33:18.977Z,24.57
2022-08-22T07:38:42.755Z,24.60
2022-08-22T07:43:57.603Z,24.27
2022-08-22T07:49:14.335Z,24.37
2022-08-22T07:54:22.737Z,24.35
2022-08-22T07:59:28.918Z,24.25
2022-08-22T08:04:33.476Z,24.33
2022-08-22T08:09:40.631Z,24.39
2022-08-22T08:14:44.160Z,23.94
2022-08-22T08:19:45.832Z,24.41
2022-08-22T08:24:47.408Z,24.77
2022-08-22T08:29:54.578Z,23.81
2022-08-22T08:34:56.256Z,24.30
2022-08-22T08:39:58.408Z,23.82
2022-08-22T08:45:23.683Z,24.18
2022-08-22T08:50:56.510Z,24.70
2022-08-22T08:56:10.922Z,25.07
2022-08-22T09:01:31.041Z,25.02
2022-08-22T09:06:56.745Z,24.97
2022-08-22T09:12:08.535Z,24.84
2022-08-22T09:17:29.161Z,24.70
2022-08-22T09:23:10.186Z,24.77
2022-08-22T09:28:14.571Z,24.94
2022-08-22T09:33:18.332Z,25.22
2022-08-22T09:38:47.814Z,25.92
2022-08-22T09:43:52.668Z,25.91
2022-08-22T09:49:25.804Z,26.11
2022-08-22T09:55:07.922Z,25.72
2022-08-22T10:00:22.407Z,25.91
2022-08-22T10:05:40.636Z,26.42
2022-08-22T10:11:06.617Z,26.25
2022-08-22T10:16:27.209Z,26.14
2022-08-22T10:21:37.950Z,26.66
2022-08-22T10:26:44.869Z,26.81
2022-08-22T10:32:21.117Z,26.42
2022-08-22T10:37:46.126Z,26.32
2022-08-22T10:43:10.849Z,26.11
2022-08-22T10:48:44.577Z,26.14
2022-08-22T10:53:53.490Z,25.97
2022-08-22T10:59:23.500Z,26.15
2022-08-22T11:04:40.119Z,26.22
2022-08-22T11:09:44.963Z,26.13
2022-08-22T11:14:57.090Z,26.09
2022-08-22T11:20:01.512Z,26.25
2022-08-22T11:25:35.663Z,26.18
2022-08-22T11:30:44.176Z,26.83
2022-08-22T11:36:11.708Z,27.13
2022-08-22T11:41:24.012Z,27.19
2022-08-22T11:46:49.096Z,26.75
2022-08-22T11:52:13.348Z,27.32
2022-08-22T11:57:17.744Z,27.05
2022-08-22T12:02:25.303Z,27.15
2022-08-22T12:07:31.566Z,27.32
2022-08-22T12:12:53.430Z,27.45
2022-08-22T12:18:21.147Z,27.88
2022-08-22T12:23:40.754Z,27.38
2022-08-22T12:28:59.137Z,27.39
2022-08-22T12:34:08.278Z,28.43
2022-08-22T12:39:17.019Z,28.55
2022-08-22T12:44:42.881Z,27.85
2022-08-22T12:50:09.147Z,28.01
2022-08-22T12:55:37.660Z,27.33
2022-08-22T13:00:43.863Z,27.23
2022-08-22T13:05:56.746Z,27.13
2022-08-22T13:11:10.033Z,27.68
2022-08-22T13:16:24.591Z,26.69
2022-08-22T13:21:31.477Z,27.24
2022-08-22T13:26:40.796Z,26.83
2022-08-22T13:31:45.563Z,26.66
2022-08-22T13:36:51.946Z,27.06
2022-08-22T13:42:00.187Z,26.85
2022-08-22T13:47:14.409Z,27.08
2022-08-22T13:52:29.206Z,27.23
2022-08-22T13:57:38.659Z,27.22
2022-08-22T14:03:00.375Z,26.71
2022-08-22T14:08:18.605Z,26.81
2022-08-22T14:13:45.050Z,26.31
2022-08-22T14:18:54.060Z,26.85
2022-08-22T14:24:13.022Z,26.78
2022-08-22T14:29:16.015Z,26.59
2022-08-22T14:34:17.543Z,26.53
2022-08-22T14:39:26.706Z,26.77
2022-08-22T14:44:29.648Z,26.27
2022-08-22T14:49:54.378Z,26.38
2022-08-22T14:55:09.741Z,26.02
2022-08-22T15:00:12.540Z,25.83
2022-08-22T15:05:19.563Z,25.06
2022-08-22T15:10:22.656Z,24.10
2022-08-22T15:15:32.842Z,24.84
2022-08-22T15:21:10.293Z,25.00
2022-08-22T15:26:22.786Z,25.50
2022-08-22T15:31:24.315Z,24.73
2022-08-22T15:36:26.050Z,25.02
2022-08-22T15:41:36.784Z,24.15
2022-08-22T15:46:41.308Z,24.17
2022-08-22T15:51:55.371Z,24.39
2022-08-22T15:57:24.803Z,24.96
2022-08-22T16:02:35.441Z,24.88
2022-08-22T16:07:50.986Z,24.40
2022-08-22T16:13:26.560Z,24.64
2022-08-22T16:18:33.823Z,24.53
2022-08-22T16:23:50.964Z,24.09
2022-08-22T16:29:37.625Z,25.06
2022-08-22T16:34:45.530Z,24.12
2022-08-22T16:40:04.074Z,24.32
2022-08-22T16:45:08.327Z,24.10
2022-08-22T16:50:15.624Z,24.80
2022-08-22T16:55:29.318Z,24.95
2022-08-22T17:00:30.727Z,24.40
2022-08-22T17:05:41.374Z,24.34
2022-08-22T17:10:53.181Z,24.67
2022-08-22T17:16:04.266Z,24.13
2022-08-22T17:21:36.341Z,23.94
2022-08-22T17:26:45.706Z,23.98
2022-08-22T17:31:59.698Z,23.90
2022-08-22T17:37:06.712Z,24.18
2022-08-22T17:42:45.283Z,23.79
2022-08-22T17:47:52.577Z,23.73
2022-08-22T17:53:00.890Z,23.00
2022-08-22T17:58:33.585Z,23.56
2022-08-22T18:03:38.886Z,23.73
2022-08-22T18:14:25.728Z,24.14
2022-08-22T18:19:43.635Z,24.35
2022-08-22T18:25:08.599Z,23.86
2022-08-22T18:30:20.559Z,23.92
2022-08-22T18:36:00.830Z,23.27
2022-08-22T18:41:06.966Z,22.93
2022-08-22T18:46:29.732Z,23.28
2022-08-22T18:51:38.297Z,23.65
2022-08-22T18:57:01.849Z,23.01
2022-08-22T19:02:40.094Z,22.95
2022-08-22T19:07:59.918Z,22.89
2022-08-22T19:13:07.206Z,22.90
2022-08-22T19:18:18.107Z,23.13
2022-08-22T19:23:40.460Z,22.73
2022-08-22T19:28:41.999Z,22.51
2022-08-22T19:33:47.596Z,22.91
2022-08-22T19:39:09.144Z,23.15
2022-08-22T19:44:19.545Z,23.52
2022-08-22T19:49:28.416Z,23.73
2022-08-22T19:54:30.286Z,23.78
2022-08-22T19:59:46.762Z,23.61
2022-08-22T20:05:04.771Z,23.55
2022-08-22T20:10:20.338Z,23.87
2022-08-22T20:15:23.575Z,24.40
2022-08-22T20:20:35.560Z,24.18
2022-08-22T20:25:44.221Z,24.66
2022-08-22T20:30:46.020Z,24.57
2022-08-22T20:35:51.428Z,24.71
2022-08-22T20:41:36.946Z,24.89
2022-08-22T20:46:56.285Z,24.87
2022-08-22T20:51:59.891Z,24.96
2022-08-22T20:57:03.457Z,25.00
2022-08-22T21:02:10.112Z,24.86
2022-08-22T21:07:11.682Z,24.94
2022-08-22T21:12:13.254Z,24.97
2022-08-22T21:17:27.301Z,24.92
2022-08-22T21:22:31.675Z,24.90
2022-08-22T21:27:33.786Z,25.01
2022-08-22T21:32:46.662Z,25.02
2022-08-22T21:37:48.170Z,25.00
2022-08-22T21:43:11.433Z,24.93
2022-08-22T21:48:58.669Z,24.92
2022-08-22T21:54:24.776Z,24.95
2022-08-22T21:59:50.789Z,25.04
2022-08-22T22:04:53.950Z,25.11
2022-08-22T22:09:55.590Z,24.89
2022-08-22T22:14:57.118Z,25.06
2022-08-22T22:19:58.638Z,25.04
2022-08-22T22:25:00.161Z,25.03
2022-08-22T22:30:01.810Z,24.91
2022-08-22T22:35:03.317Z,24.85
2022-08-22T22:40:07.218Z,25.00
2022-08-22T22:45:10.725Z,24.96
2022-08-22T22:50:12.247Z,24.86
2022-08-22T22:55:24.453Z,24.78
2022-08-22T23:00:34.021Z,24.70
2022-08-22T23:05:35.602Z,24.69
2022-08-22T23:10:37.182Z,24.68
2022-08-22T23:15:38.740Z,24.59
2022-08-22T23:20:40.263Z,24.66
2022-08-22T23:25:41.787Z,24.69
2022-08-22T23:30:43.351Z,24.42
2022-08-22T23:35:44.995Z,24.70
2022-08-22T23:40:46.503Z,24.72
2022-08-22T23:45:48.013Z,24.64
2022-08-22T23:50:49.532Z,24.65
2022-08-22T23:55:51.088Z,24.67
